sensor_id;sensor_type;location;lat;lon;timestamp;P1;durP1;ratioP1;P2;durP2;ratioP2
72493;SDS011;60520;49.182;-0.348;2022-12-29T00:02:26;2.00;;;0.80;;
72493;SDS011;60520;49.182;-0.348;2022-12-29T00:04:53;1.95;;;0.80;;
72493;SDS011;60520;49.182;-0.348;2022-12-29T00:07:20;2.15;;;1.00;;
72493;SDS011;60520;49.182;-0.348;2022-12-29T00:09:47;1.58;;;0.80;;
72493;SDS011;60520;49.182;-0.348;2022-12-29T00:12:15;1.98;;;0.77;;
72493;SDS011;60520;49.182;-0.348;2022-12-29T00:14:42;2.03;;;1.00;;
72493;SDS011;60520;49.182;-0.348;2022-12-29T00:17:28;1.70;;;0.85;;
72493;SDS011;60520;49.182;-0.348;2022-12-29T00:19:55;1.95;;;0.85;;
72493;SDS011;60520;49.182;-0.348;2022-12-29T00:22:40;1.73;;;1.00;;
72493;SDS011;60520;49.182;-0.348;2022-12-29T00:25:24;1.42;;;0.70;;
72493;SDS011;60520;49.182;-0.348;2022-12-29T00:28:09;1.90;;;0.90;;
72493;SDS011;60520;49.182;-0.348;2022-12-29T00:30:54;1.95;;;0.70;;
72493;SDS011;60520;49.182;-0.348;2022-12-29T00:33:43;1.13;;;0.70;;
72493;SDS011;60520;49.182;-0.348;2022-12-29T00:36:29;2.30;;;0.80;;
72493;SDS011;60520;49.182;-0.348;2022-12-29T00:38:59;1.52;;;0.77;;
72493;SDS011;60520;49.182;-0.348;2022-12-29T00:41:56;2.30;;;0.80;;
72493;SDS011;60520;49.182;-0.348;2022-12-29T00:44:40;1.98;;;0.75;;
72493;SDS011;60520;49.182;-0.348;2022-12-29T00:47:10;2.28;;;0.88;;
72493;SDS011;60520;49.182;-0.348;2022-12-29T00:49:38;2.90;;;1.02;;
72493;SDS011;60520;49.182;-0.348;2022-12-29T00:52:05;1.25;;;0.70;;
72493;SDS011;60520;49.182;-0.348;2022-12-29T00:54:33;2.45;;;1.00;;
72493;SDS011;60520;49.182;-0.348;2022-12-29T00:57:00;1.92;;;0.80;;
72493;SDS011;60520;49.182;-0.348;2022-12-29T00:59:27;1.92;;;0.73;;
72493;SDS011;60520;49.182;-0.348;2022-12-29T01:01:54;1.35;;;0.73;;
72493;SDS011;60520;49.182;-0.348;2022-12-29T01:04:23;1.25;;;0.80;;
72493;SDS011;60520;49.182;-0.348;2022-12-29T01:06:52;3.38;;;0.90;;
72493;SDS011;60520;49.182;-0.348;2022-12-29T01:09:19;1.90;;;0.63;;
72493;SDS011;60520;49.182;-0.348;2022-12-29T01:12:04;2.40;;;0.93;;
72493;SDS011;60520;49.182;-0.348;2022-12-29T01:14:32;2.15;;;0.85;;
72493;SDS011;60520;49.182;-0.348;2022-12-29T01:16:59;3.03;;;0.90;;
72493;SDS011;60520;49.182;-0.348;2022-12-29T01:19:26;2.03;;;0.80;;
72493;SDS011;60520;49.182;-0.348;2022-12-29T01:21:55;2.10;;;0.80;;
72493;SDS011;60520;49.182;-0.348;2022-12-29T01:24:22;2.63;;;1.00;;
72493;SDS011;60520;49.182;-0.348;2022-12-29T01:26:51;1.70;;;0.90;;
72493;SDS011;60520;49.182;-0.348;2022-12-29T01:29:19;2.78;;;0.90;;
72493;SDS011;60520;49.182;-0.348;2022-12-29T01:31:46;2.17;;;0.90;;
72493;SDS011;60520;49.182;-0.348;2022-12-29T01:34:14;2.30;;;1.00;;
72493;SDS011;60520;49.182;-0.348;2022-12-29T01:36:41;3.67;;;0.90;;
72493;SDS011;60520;49.182;-0.348;2022-12-29T01:39:10;1.75;;;0.70;;
72493;SDS011;60520;49.182;-0.348;2022-12-29T01:41:37;2.60;;;0.80;;
72493;SDS011;60520;49.182;-0.348;2022-12-29T01:46:46;2.55;;;1.08;;
72493;SDS011;60520;49.182;-0.348;2022-12-29T01:49:15;3.33;;;1.02;;
72493;SDS011;60520;49.182;-0.348;2022-12-29T01:51:44;2.97;;;0.90;;
72493;SDS011;60520;49.182;-0.348;2022-12-29T01:54:14;2.38;;;0.93;;
72493;SDS011;60520;49.182;-0.348;2022-12-29T01:56:43;2.22;;;1.00;;
72493;SDS011;60520;49.182;-0.348;2022-12-29T01:59:11;2.15;;;1.00;;
72493;SDS011;60520;49.182;-0.348;2022-12-29T02:01:39;2.55;;;0.85;;
72493;SDS011;60520;49.182;-0.348;2022-12-29T02:04:06;3.58;;;1.10;;
72493;SDS011;60520;49.182;-0.348;2022-12-29T02:06:36;2.67;;;0.90;;
72493;SDS011;60520;49.182;-0.348;2022-12-29T02:09:05;3.47;;;1.05;;
72493;SDS011;60520;49.182;-0.348;2022-12-29T02:11:33;3.20;;;1.00;;
72493;SDS011;60520;49.182;-0.348;2022-12-29T02:14:01;2.45;;;0.90;;
72493;SDS011;60520;49.182;-0.348;2022-12-29T02:16:36;1.92;;;0.90;;
72493;SDS011;60520;49.182;-0.348;2022-12-29T02:19:23;3.13;;;1.10;;
72493;SDS011;60520;49.182;-0.348;2022-12-29T02:22:00;1.48;;;0.80;;
72493;SDS011;60520;49.182;-0.348;2022-12-29T02:24:36;3.83;;;1.10;;
72493;SDS011;60520;49.182;-0.348;2022-12-29T02:27:17;2.60;;;1.02;;
72493;SDS011;60520;49.182;-0.348;2022-12-29T02:32:37;2.85;;;1.00;;
72493;SDS011;60520;49.182;-0.348;2022-12-29T02:35:06;3.00;;;1.00;;
72493;SDS011;60520;49.182;-0.348;2022-12-29T02:37:38;2.78;;;1.08;;
72493;SDS011;60520;49.182;-0.348;2022-12-29T02:40:08;2.15;;;0.90;;
72493;SDS011;60520;49.182;-0.348;2022-12-29T02:42:41;4.82;;;1.35;;
72493;SDS011;60520;49.182;-0.348;2022-12-29T02:45:13;2.63;;;1.02;;
72493;SDS011;60520;49.182;-0.348;2022-12-29T02:47:46;3.00;;;1.00;;
72493;SDS011;60520;49.182;-0.348;2022-12-29T02:50:17;2.78;;;1.00;;
72493;SDS011;60520;49.182;-0.348;2022-12-29T02:52:46;2.75;;;1.08;;
72493;SDS011;60520;49.182;-0.348;2022-12-29T02:55:15;3.30;;;1.25;;
72493;SDS011;60520;49.182;-0.348;2022-12-29T02:57:41;2.97;;;0.82;;
72493;SDS011;60520;49.182;-0.348;2022-12-29T03:00:09;3.35;;;1.10;;
72493;SDS011;60520;49.182;-0.348;2022-12-29T03:02:58;3.95;;;1.20;;
72493;SDS011;60520;49.182;-0.348;2022-12-29T03:05:33;2.63;;;1.08;;
72493;SDS011;60520;49.182;-0.348;2022-12-29T03:08:04;3.75;;;1.02;;
72493;SDS011;60520;49.182;-0.348;2022-12-29T03:10:36;3.58;;;1.05;;
72493;SDS011;60520;49.182;-0.348;2022-12-29T03:13:07;3.83;;;1.02;;
72493;SDS011;60520;49.182;-0.348;2022-12-29T03:16:00;2.88;;;1.00;;
72493;SDS011;60520;49.182;-0.348;2022-12-29T03:18:37;3.10;;;1.10;;
72493;SDS011;60520;49.182;-0.348;2022-12-29T03:21:05;4.18;;;1.10;;
72493;SDS011;60520;49.182;-0.348;2022-12-29T03:23:34;2.33;;;1.00;;
72493;SDS011;60520;49.182;-0.348;2022-12-29T03:26:04;2.22;;;0.90;;
72493;SDS011;60520;49.182;-0.348;2022-12-29T03:28:33;2.80;;;1.10;;
72493;SDS011;60520;49.182;-0.348;2022-12-29T03:31:02;4.65;;;1.20;;
72493;SDS011;60520;49.182;-0.348;2022-12-29T03:33:30;2.60;;;1.00;;
72493;SDS011;60520;49.182;-0.348;2022-12-29T03:36:00;3.92;;;1.20;;
72493;SDS011;60520;49.182;-0.348;2022-12-29T03:38:30;3.22;;;1.02;;
72493;SDS011;60520;49.182;-0.348;2022-12-29T03:41:00;3.33;;;1.08;;
72493;SDS011;60520;49.182;-0.348;2022-12-29T03:43:30;3.80;;;1.15;;
72493;SDS011;60520;49.182;-0.348;2022-12-29T03:45:57;2.65;;;1.00;;
72493;SDS011;60520;49.182;-0.348;2022-12-29T03:48:24;3.05;;;0.90;;
72493;SDS011;60520;49.182;-0.348;2022-12-29T03:50:51;3.35;;;1.20;;
72493;SDS011;60520;49.182;-0.348;2022-12-29T03:53:20;3.20;;;1.40;;
72493;SDS011;60520;49.182;-0.348;2022-12-29T03:55:47;4.50;;;1.20;;
72493;SDS011;60520;49.182;-0.348;2022-12-29T03:58:14;3.22;;;1.23;;
72493;SDS011;60520;49.182;-0.348;2022-12-29T04:00:41;2.95;;;1.17;;
72493;SDS011;60520;49.182;-0.348;2022-12-29T04:03:08;4.38;;;1.13;;
72493;SDS011;60520;49.182;-0.348;2022-12-29T04:05:36;4.72;;;1.30;;
72493;SDS011;60520;49.182;-0.348;2022-12-29T04:08:03;3.83;;;1.30;;
72493;SDS011;60520;49.182;-0.348;2022-12-29T04:10:31;5.13;;;1.30;;
72493;SDS011;60520;49.182;-0.348;2022-12-29T04:12:58;4.25;;;1.40;;
72493;SDS011;60520;49.182;-0.348;2022-12-29T04:15:25;3.45;;;0.88;;
72493;SDS011;60520;49.182;-0.348;2022-12-29T04:17:54;2.72;;;1.20;;
72493;SDS011;60520;49.182;-0.348;2022-12-29T04:20:21;4.03;;;1.40;;
72493;SDS011;60520;49.182;-0.348;2022-12-29T04:23:05;2.17;;;1.15;;
72493;SDS011;60520;49.182;-0.348;2022-12-29T04:25:34;2.20;;;0.75;;
72493;SDS011;60520;49.182;-0.348;2022-12-29T04:28:01;2.33;;;1.25;;
72493;SDS011;60520;49.182;-0.348;2022-12-29T04:30:28;1.75;;;0.85;;
72493;SDS011;60520;49.182;-0.348;2022-12-29T04:32:56;3.10;;;1.10;;
72493;SDS011;60520;49.182;-0.348;2022-12-29T04:35:24;3.60;;;1.25;;
72493;SDS011;60520;49.182;-0.348;2022-12-29T04:37:51;4.32;;;1.20;;
72493;SDS011;60520;49.182;-0.348;2022-12-29T04:40:18;3.65;;;1.27;;
72493;SDS011;60520;49.182;-0.348;2022-12-29T04:42:46;4.88;;;1.50;;
72493;SDS011;60520;49.182;-0.348;2022-12-29T04:45:13;4.18;;;1.10;;
72493;SDS011;60520;49.182;-0.348;2022-12-29T04:47:41;2.47;;;1.20;;
72493;SDS011;60520;49.182;-0.348;2022-12-29T04:50:08;3.60;;;1.20;;
72493;SDS011;60520;49.182;-0.348;2022-12-29T04:52:35;3.20;;;0.95;;
72493;SDS011;60520;49.182;-0.348;2022-12-29T04:55:02;3.40;;;1.10;;
72493;SDS011;60520;49.182;-0.348;2022-12-29T04:57:30;2.05;;;1.00;;
72493;SDS011;60520;49.182;-0.348;2022-12-29T04:59:58;4.18;;;1.17;;
72493;SDS011;60520;49.182;-0.348;2022-12-29T05:02:25;2.45;;;0.90;;
72493;SDS011;60520;49.182;-0.348;2022-12-29T05:04:52;3.08;;;1.38;;
72493;SDS011;60520;49.182;-0.348;2022-12-29T05:07:19;4.10;;;1.38;;
72493;SDS011;60520;49.182;-0.348;2022-12-29T05:09:46;3.85;;;1.30;;
72493;SDS011;60520;49.182;-0.348;2022-12-29T05:12:14;3.00;;;1.17;;
72493;SDS011;60520;49.182;-0.348;2022-12-29T05:14:41;3.90;;;1.25;;
72493;SDS011;60520;49.182;-0.348;2022-12-29T05:17:09;2.88;;;1.38;;
72493;SDS011;60520;49.182;-0.348;2022-12-29T05:19:36;2.95;;;1.02;;
72493;SDS011;60520;49.182;-0.348;2022-12-29T05:22:04;2.95;;;1.02;;
72493;SDS011;60520;49.182;-0.348;2022-12-29T05:24:31;3.25;;;0.90;;
72493;SDS011;60520;49.182;-0.348;2022-12-29T05:26:58;3.95;;;1.20;;
72493;SDS011;60520;49.182;-0.348;2022-12-29T05:29:25;5.05;;;1.38;;
72493;SDS011;60520;49.182;-0.348;2022-12-29T05:31:52;3.75;;;1.20;;
72493;SDS011;60520;49.182;-0.348;2022-12-29T05:34:21;3.55;;;1.20;;
72493;SDS011;60520;49.182;-0.348;2022-12-29T05:36:48;3.20;;;1.17;;
72493;SDS011;60520;49.182;-0.348;2022-12-29T05:39:15;3.85;;;1.10;;
72493;SDS011;60520;49.182;-0.348;2022-12-29T05:41:42;2.92;;;1.10;;
72493;SDS011;60520;49.182;-0.348;2022-12-29T05:44:09;3.65;;;1.20;;
72493;SDS011;60520;49.182;-0.348;2022-12-29T05:46:36;4.50;;;1.30;;
72493;SDS011;60520;49.182;-0.348;2022-12-29T05:49:03;4.93;;;1.30;;
72493;SDS011;60520;49.182;-0.348;2022-12-29T05:51:32;3.30;;;1.10;;
72493;SDS011;60520;49.182;-0.348;2022-12-29T05:53:59;4.03;;;1.25;;
72493;SDS011;60520;49.182;-0.348;2022-12-29T05:56:26;3.83;;;1.35;;
72493;SDS011;60520;49.182;-0.348;2022-12-29T05:58:53;3.40;;;1.20;;
72493;SDS011;60520;49.182;-0.348;2022-12-29T06:01:20;6.05;;;1.27;;
72493;SDS011;60520;49.182;-0.348;2022-12-29T06:03:47;3.28;;;1.15;;
72493;SDS011;60520;49.182;-0.348;2022-12-29T06:06:15;5.05;;;1.20;;
72493;SDS011;60520;49.182;-0.348;2022-12-29T06:08:43;4.18;;;1.30;;
72493;SDS011;60520;49.182;-0.348;2022-12-29T06:11:10;3.95;;;1.20;;
72493;SDS011;60520;49.182;-0.348;2022-12-29T06:13:37;4.15;;;1.50;;
72493;SDS011;60520;49.182;-0.348;2022-12-29T06:16:05;4.35;;;1.20;;
72493;SDS011;60520;49.182;-0.348;2022-12-29T06:18:32;4.38;;;1.65;;
72493;SDS011;60520;49.182;-0.348;2022-12-29T06:21:00;3.80;;;1.30;;
72493;SDS011;60520;49.182;-0.348;2022-12-29T06:23:27;3.75;;;1.33;;
72493;SDS011;60520;49.182;-0.348;2022-12-29T06:25:55;3.17;;;1.13;;
72493;SDS011;60520;49.182;-0.348;2022-12-29T06:28:23;4.20;;;1.13;;
72493;SDS011;60520;49.182;-0.348;2022-12-29T06:30:50;4.65;;;1.30;;
72493;SDS011;60520;49.182;-0.348;2022-12-29T06:33:17;2.67;;;1.05;;
72493;SDS011;60520;49.182;-0.348;2022-12-29T06:35:45;3.25;;;1.20;;
72493;SDS011;60520;49.182;-0.348;2022-12-29T06:38:12;3.13;;;1.25;;
72493;SDS011;60520;49.182;-0.348;2022-12-29T06:40:41;4.15;;;1.52;;
72493;SDS011;60520;49.182;-0.348;2022-12-29T06:43:11;4.47;;;1.45;;
72493;SDS011;60520;49.182;-0.348;2022-12-29T06:45:38;4.00;;;1.30;;
72493;SDS011;60520;49.182;-0.348;2022-12-29T06:48:05;2.55;;;1.23;;
72493;SDS011;60520;49.182;-0.348;2022-12-29T06:50:33;3.63;;;1.30;;
72493;SDS011;60520;49.182;-0.348;2022-12-29T06:53:00;5.05;;;1.38;;
72493;SDS011;60520;49.182;-0.348;2022-12-29T06:55:27;4.57;;;1.58;;
72493;SDS011;60520;49.182;-0.348;2022-12-29T06:57:54;3.35;;;1.30;;
72493;SDS011;60520;49.182;-0.348;2022-12-29T07:00:23;4.90;;;1.20;;
72493;SDS011;60520;49.182;-0.348;2022-12-29T07:02:51;3.65;;;1.00;;
72493;SDS011;60520;49.182;-0.348;2022-12-29T07:05:18;2.47;;;1.10;;
72493;SDS011;60520;49.182;-0.348;2022-12-29T07:07:45;3.05;;;1.30;;
72493;SDS011;60520;49.182;-0.348;2022-12-29T07:10:12;4.22;;;1.20;;
72493;SDS011;60520;49.182;-0.348;2022-12-29T07:12:39;3.22;;;1.20;;
72493;SDS011;60520;49.182;-0.348;2022-12-29T07:15:07;3.50;;;1.08;;
72493;SDS011;60520;49.182;-0.348;2022-12-29T07:17:35;4.25;;;1.30;;
72493;SDS011;60520;49.182;-0.348;2022-12-29T07:20:03;3.08;;;1.30;;
72493;SDS011;60520;49.182;-0.348;2022-12-29T07:22:30;3.47;;;1.23;;
72493;SDS011;60520;49.182;-0.348;2022-12-29T07:24:57;3.60;;;1.23;;
72493;SDS011;60520;49.182;-0.348;2022-12-29T07:27:24;3.30;;;1.20;;
72493;SDS011;60520;49.182;-0.348;2022-12-29T07:29:51;3.85;;;1.33;;
72493;SDS011;60520;49.182;-0.348;2022-12-29T07:32:18;3.80;;;1.20;;
72493;SDS011;60520;49.182;-0.348;2022-12-29T07:34:47;3.67;;;1.15;;
72493;SDS011;60520;49.182;-0.348;2022-12-29T07:37:14;5.05;;;1.40;;
72493;SDS011;60520;49.182;-0.348;2022-12-29T07:39:41;4.50;;;1.45;;
72493;SDS011;60520;49.182;-0.348;2022-12-29T07:42:08;4.82;;;1.42;;
72493;SDS011;60520;49.182;-0.348;2022-12-29T07:44:36;4.22;;;1.50;;
72493;SDS011;60520;49.182;-0.348;2022-12-29T07:47:03;4.35;;;1.45;;
72493;SDS011;60520;49.182;-0.348;2022-12-29T07:49:30;4.95;;;1.20;;
72493;SDS011;60520;49.182;-0.348;2022-12-29T07:51:58;3.42;;;1.50;;
72493;SDS011;60520;49.182;-0.348;2022-12-29T07:54:25;3.38;;;1.20;;
72493;SDS011;60520;49.182;-0.348;2022-12-29T07:56:52;5.03;;;1.40;;
72493;SDS011;60520;49.182;-0.348;2022-12-29T07:59:19;5.03;;;1.48;;
72493;SDS011;60520;49.182;-0.348;2022-12-29T08:01:47;2.65;;;1.17;;
72493;SDS011;60520;49.182;-0.348;2022-12-29T08:04:14;3.25;;;1.13;;
72493;SDS011;60520;49.182;-0.348;2022-12-29T08:06:41;4.03;;;1.30;;
72493;SDS011;60520;49.182;-0.348;2022-12-29T08:09:11;3.13;;;1.27;;
72493;SDS011;60520;49.182;-0.348;2022-12-29T08:11:38;2.95;;;1.25;;
72493;SDS011;60520;49.182;-0.348;2022-12-29T08:14:06;4.35;;;1.33;;
72493;SDS011;60520;49.182;-0.348;2022-12-29T08:16:33;4.40;;;1.40;;
72493;SDS011;60520;49.182;-0.348;2022-12-29T08:19:00;3.17;;;1.20;;
72493;SDS011;60520;49.182;-0.348;2022-12-29T08:21:28;5.70;;;1.60;;
72493;SDS011;60520;49.182;-0.348;2022-12-29T08:23:56;3.47;;;1.17;;
72493;SDS011;60520;49.182;-0.348;2022-12-29T08:26:25;4.95;;;1.60;;
72493;SDS011;60520;49.182;-0.348;2022-12-29T08:28:52;4.32;;;1.23;;
72493;SDS011;60520;49.182;-0.348;2022-12-29T08:31:20;2.80;;;1.10;;
72493;SDS011;60520;49.182;-0.348;2022-12-29T08:33:48;3.53;;;1.30;;
72493;SDS011;60520;49.182;-0.348;2022-12-29T08:36:15;4.97;;;1.60;;
72493;SDS011;60520;49.182;-0.348;2022-12-29T08:38:42;3.67;;;1.40;;
72493;SDS011;60520;49.182;-0.348;2022-12-29T08:41:09;3.95;;;1.50;;
72493;SDS011;60520;49.182;-0.348;2022-12-29T08:43:37;4.78;;;1.23;;
72493;SDS011;60520;49.182;-0.348;2022-12-29T08:46:05;3.78;;;1.52;;
72493;SDS011;60520;49.182;-0.348;2022-12-29T08:48:32;4.05;;;1.45;;
72493;SDS011;60520;49.182;-0.348;2022-12-29T08:50:59;3.97;;;1.58;;
72493;SDS011;60520;49.182;-0.348;2022-12-29T08:53:26;3.78;;;1.27;;
72493;SDS011;60520;49.182;-0.348;2022-12-29T08:55:57;3.28;;;1.10;;
72493;SDS011;60520;49.182;-0.348;2022-12-29T08:58:25;4.10;;;1.33;;
72493;SDS011;60520;49.182;-0.348;2022-12-29T09:00:53;3.63;;;1.42;;
72493;SDS011;60520;49.182;-0.348;2022-12-29T09:03:21;4.57;;;1.48;;
72493;SDS011;60520;49.182;-0.348;2022-12-29T09:05:48;4.50;;;1.40;;
72493;SDS011;60520;49.182;-0.348;2022-12-29T09:08:15;4.72;;;1.40;;
72493;SDS011;60520;49.182;-0.348;2022-12-29T09:10:42;2.40;;;1.20;;
72493;SDS011;60520;49.182;-0.348;2022-12-29T09:13:10;3.63;;;1.15;;
72493;SDS011;60520;49.182;-0.348;2022-12-29T09:15:37;3.03;;;1.25;;
72493;SDS011;60520;49.182;-0.348;2022-12-29T09:18:06;4.68;;;1.48;;
72493;SDS011;60520;49.182;-0.348;2022-12-29T09:20:33;3.20;;;1.20;;
72493;SDS011;60520;49.182;-0.348;2022-12-29T09:23:01;3.17;;;1.23;;
72493;SDS011;60520;49.182;-0.348;2022-12-29T09:25:28;4.60;;;1.60;;
72493;SDS011;60520;49.182;-0.348;2022-12-29T09:27:55;2.90;;;1.27;;
72493;SDS011;60520;49.182;-0.348;2022-12-29T09:30:22;6.68;;;1.42;;
72493;SDS011;60520;49.182;-0.348;2022-12-29T09:32:50;5.13;;;1.27;;
72493;SDS011;60520;49.182;-0.348;2022-12-29T09:35:18;2.63;;;1.23;;
72493;SDS011;60520;49.182;-0.348;2022-12-29T09:37:45;4.35;;;1.60;;
72493;SDS011;60520;49.182;-0.348;2022-12-29T09:40:20;3.38;;;1.38;;
72493;SDS011;60520;49.182;-0.348;2022-12-29T09:42:54;3.60;;;1.38;;
72493;SDS011;60520;49.182;-0.348;2022-12-29T09:45:24;4.43;;;1.42;;
72493;SDS011;60520;49.182;-0.348;2022-12-29T09:47:52;3.65;;;1.27;;
72493;SDS011;60520;49.182;-0.348;2022-12-29T09:50:22;3.25;;;1.35;;
72493;SDS011;60520;49.182;-0.348;2022-12-29T09:52:52;3.67;;;1.27;;
72493;SDS011;60520;49.182;-0.348;2022-12-29T09:55:22;4.38;;;1.50;;
72493;SDS011;60520;49.182;-0.348;2022-12-29T09:57:52;3.15;;;1.30;;
72493;SDS011;60520;49.182;-0.348;2022-12-29T10:00:21;5.47;;;1.88;;
72493;SDS011;60520;49.182;-0.348;2022-12-29T10:02:49;4.65;;;1.17;;
72493;SDS011;60520;49.182;-0.348;2022-12-29T10:05:26;4.15;;;1.33;;
72493;SDS011;60520;49.182;-0.348;2022-12-29T10:07:55;4.25;;;1.48;;
72493;SDS011;60520;49.182;-0.348;2022-12-29T10:10:30;3.83;;;1.25;;
72493;SDS011;60520;49.182;-0.348;2022-12-29T10:13:00;5.43;;;1.55;;
72493;SDS011;60520;49.182;-0.348;2022-12-29T10:15:38;3.63;;;1.23;;
72493;SDS011;60520;49.182;-0.348;2022-12-29T10:18:13;3.63;;;1.35;;
72493;SDS011;60520;49.182;-0.348;2022-12-29T10:20:47;4.85;;;1.75;;
72493;SDS011;60520;49.182;-0.348;2022-12-29T10:23:20;3.17;;;1.15;;
72493;SDS011;60520;49.182;-0.348;2022-12-29T10:25:49;6.55;;;1.55;;
72493;SDS011;60520;49.182;-0.348;2022-12-29T10:28:19;5.63;;;1.52;;
72493;SDS011;60520;49.182;-0.348;2022-12-29T10:30:50;5.72;;;1.50;;
72493;SDS011;60520;49.182;-0.348;2022-12-29T10:33:18;4.38;;;1.40;;
72493;SDS011;60520;49.182;-0.348;2022-12-29T10:35:50;4.78;;;1.45;;
72493;SDS011;60520;49.182;-0.348;2022-12-29T10:38:19;4.38;;;1.58;;
72493;SDS011;60520;49.182;-0.348;2022-12-29T10:40:51;4.15;;;1.48;;
72493;SDS011;60520;49.182;-0.348;2022-12-29T10:43:20;5.30;;;1.58;;
72493;SDS011;60520;49.182;-0.348;2022-12-29T10:45:48;3.67;;;1.42;;
72493;SDS011;60520;49.182;-0.348;2022-12-29T10:48:18;3.53;;;1.48;;
72493;SDS011;60520;49.182;-0.348;2022-12-29T10:50:47;4.53;;;1.55;;
72493;SDS011;60520;49.182;-0.348;2022-12-29T10:53:17;3.63;;;1.38;;
72493;SDS011;60520;49.182;-0.348;2022-12-29T10:55:45;4.53;;;1.75;;
72493;SDS011;60520;49.182;-0.348;2022-12-29T10:58:13;4.28;;;1.60;;
72493;SDS011;60520;49.182;-0.348;2022-12-29T11:00:41;3.63;;;1.33;;
72493;SDS011;60520;49.182;-0.348;2022-12-29T11:03:25;3.67;;;1.40;;
72493;SDS011;60520;49.182;-0.348;2022-12-29T11:05:59;4.18;;;1.48;;
72493;SDS011;60520;49.182;-0.348;2022-12-29T11:08:30;6.05;;;1.77;;
72493;SDS011;60520;49.182;-0.348;2022-12-29T11:10:58;3.00;;;1.30;;
72493;SDS011;60520;49.182;-0.348;2022-12-29T11:13:26;4.50;;;1.50;;
72493;SDS011;60520;49.182;-0.348;2022-12-29T11:15:53;3.80;;;1.52;;
72493;SDS011;60520;49.182;-0.348;2022-12-29T11:18:23;5.57;;;1.50;;
72493;SDS011;60520;49.182;-0.348;2022-12-29T11:20:51;4.72;;;1.55;;
72493;SDS011;60520;49.182;-0.348;2022-12-29T11:23:23;3.40;;;1.27;;
72493;SDS011;60520;49.182;-0.348;2022-12-29T11:28:34;4.28;;;1.70;;
72493;SDS011;60520;49.182;-0.348;2022-12-29T11:31:01;4.60;;;1.40;;
72493;SDS011;60520;49.182;-0.348;2022-12-29T11:33:29;4.03;;;1.45;;
72493;SDS011;60520;49.182;-0.348;2022-12-29T11:35:57;4.38;;;1.73;;
72493;SDS011;60520;49.182;-0.348;2022-12-29T11:38:25;2.92;;;1.17;;
72493;SDS011;60520;49.182;-0.348;2022-12-29T11:40:52;4.60;;;1.65;;
72493;SDS011;60520;49.182;-0.348;2022-12-29T11:43:21;4.82;;;1.90;;
72493;SDS011;60520;49.182;-0.348;2022-12-29T11:45:51;3.83;;;1.40;;
72493;SDS011;60520;49.182;-0.348;2022-12-29T11:48:21;3.60;;;1.42;;
72493;SDS011;60520;49.182;-0.348;2022-12-29T11:50:49;4.75;;;1.50;;
72493;SDS011;60520;49.182;-0.348;2022-12-29T11:53:18;4.38;;;1.40;;
72493;SDS011;60520;49.182;-0.348;2022-12-29T11:55:51;5.88;;;1.67;;
72493;SDS011;60520;49.182;-0.348;2022-12-29T11:58:18;3.85;;;1.40;;
72493;SDS011;60520;49.182;-0.348;2022-12-29T12:00:45;3.83;;;1.42;;
72493;SDS011;60520;49.182;-0.348;2022-12-29T12:03:16;3.47;;;1.50;;
72493;SDS011;60520;49.182;-0.348;2022-12-29T12:05:45;5.45;;;1.70;;
72493;SDS011;60520;49.182;-0.348;2022-12-29T12:08:17;3.70;;;1.30;;
72493;SDS011;60520;49.182;-0.348;2022-12-29T12:10:46;3.58;;;1.40;;
72493;SDS011;60520;49.182;-0.348;2022-12-29T12:13:17;3.50;;;1.55;;
72493;SDS011;60520;49.182;-0.348;2022-12-29T12:15:46;4.43;;;1.50;;
72493;SDS011;60520;49.182;-0.348;2022-12-29T12:18:18;3.13;;;1.40;;
72493;SDS011;60520;49.182;-0.348;2022-12-29T12:20:47;5.03;;;1.42;;
72493;SDS011;60520;49.182;-0.348;2022-12-29T12:23:18;4.55;;;1.42;;
72493;SDS011;60520;49.182;-0.348;2022-12-29T12:25:51;4.63;;;1.63;;
72493;SDS011;60520;49.182;-0.348;2022-12-29T12:28:23;5.15;;;1.52;;
72493;SDS011;60520;49.182;-0.348;2022-12-29T12:30:52;3.15;;;1.40;;
72493;SDS011;60520;49.182;-0.348;2022-12-29T12:33:24;2.25;;;1.13;;
72493;SDS011;60520;49.182;-0.348;2022-12-29T12:35:57;5.30;;;1.75;;
72493;SDS011;60520;49.182;-0.348;2022-12-29T12:38:31;4.90;;;1.27;;
72493;SDS011;60520;49.182;-0.348;2022-12-29T12:41:08;4.70;;;1.73;;
72493;SDS011;60520;49.182;-0.348;2022-12-29T12:43:37;3.47;;;1.30;;
72493;SDS011;60520;49.182;-0.348;2022-12-29T12:46:10;4.32;;;1.65;;
72493;SDS011;60520;49.182;-0.348;2022-12-29T12:48:50;3.15;;;1.20;;
72493;SDS011;60520;49.182;-0.348;2022-12-29T12:51:23;4.18;;;1.50;;
72493;SDS011;60520;49.182;-0.348;2022-12-29T12:54:01;4.82;;;1.55;;
72493;SDS011;60520;49.182;-0.348;2022-12-29T12:56:38;3.67;;;1.50;;
72493;SDS011;60520;49.182;-0.348;2022-12-29T12:59:11;3.67;;;1.63;;
72493;SDS011;60520;49.182;-0.348;2022-12-29T13:01:42;3.55;;;1.40;;
72493;SDS011;60520;49.182;-0.348;2022-12-29T13:04:36;4.00;;;1.35;;
72493;SDS011;60520;49.182;-0.348;2022-12-29T13:07:08;2.75;;;1.20;;
72493;SDS011;60520;49.182;-0.348;2022-12-29T13:09:41;3.05;;;1.42;;
72493;SDS011;60520;49.182;-0.348;2022-12-29T13:12:14;3.55;;;1.25;;
72493;SDS011;60520;49.182;-0.348;2022-12-29T13:14:49;3.05;;;1.40;;
72493;SDS011;60520;49.182;-0.348;2022-12-29T13:17:23;4.75;;;1.50;;
72493;SDS011;60520;49.182;-0.348;2022-12-29T13:19:56;3.17;;;1.25;;
72493;SDS011;60520;49.182;-0.348;2022-12-29T13:22:28;5.63;;;1.58;;
72493;SDS011;60520;49.182;-0.348;2022-12-29T13:25:04;3.90;;;1.58;;
72493;SDS011;60520;49.182;-0.348;2022-12-29T13:27:33;4.00;;;1.40;;
72493;SDS011;60520;49.182;-0.348;2022-12-29T13:30:02;3.47;;;1.55;;
72493;SDS011;60520;49.182;-0.348;2022-12-29T13:32:34;4.43;;;1.38;;
72493;SDS011;60520;49.182;-0.348;2022-12-29T13:35:09;3.10;;;1.20;;
72493;SDS011;60520;49.182;-0.348;2022-12-29T13:37:41;5.60;;;1.60;;
72493;SDS011;60520;49.182;-0.348;2022-12-29T13:40:12;3.70;;;1.30;;
72493;SDS011;60520;49.182;-0.348;2022-12-29T13:42:40;5.03;;;1.63;;
72493;SDS011;60520;49.182;-0.348;2022-12-29T13:45:10;4.45;;;1.30;;
72493;SDS011;60520;49.182;-0.348;2022-12-29T13:47:40;3.88;;;1.50;;
72493;SDS011;60520;49.182;-0.348;2022-12-29T13:50:12;2.72;;;1.20;;
72493;SDS011;60520;49.182;-0.348;2022-12-29T13:52:42;4.50;;;1.48;;
72493;SDS011;60520;49.182;-0.348;2022-12-29T13:55:17;4.82;;;1.42;;
72493;SDS011;60520;49.182;-0.348;2022-12-29T13:57:48;3.80;;;1.50;;
72493;SDS011;60520;49.182;-0.348;2022-12-29T14:00:17;3.58;;;1.30;;
72493;SDS011;60520;49.182;-0.348;2022-12-29T14:02:50;3.58;;;1.30;;
72493;SDS011;60520;49.182;-0.348;2022-12-29T14:05:29;3.70;;;1.42;;
72493;SDS011;60520;49.182;-0.348;2022-12-29T14:07:57;3.40;;;1.30;;
72493;SDS011;60520;49.182;-0.348;2022-12-29T14:10:26;3.03;;;1.40;;
72493;SDS011;60520;49.182;-0.348;2022-12-29T14:12:59;4.45;;;1.40;;
72493;SDS011;60520;49.182;-0.348;2022-12-29T14:15:26;4.03;;;1.60;;
72493;SDS011;60520;49.182;-0.348;2022-12-29T14:18:04;4.35;;;1.48;;
72493;SDS011;60520;49.182;-0.348;2022-12-29T14:20:33;5.75;;;1.60;;
72493;SDS011;60520;49.182;-0.348;2022-12-29T14:23:01;4.65;;;1.45;;
72493;SDS011;60520;49.182;-0.348;2022-12-29T14:25:55;3.85;;;1.50;;
72493;SDS011;60520;49.182;-0.348;2022-12-29T14:28:23;4.03;;;1.25;;
72493;SDS011;60520;49.182;-0.348;2022-12-29T14:30:51;4.18;;;1.52;;
72493;SDS011;60520;49.182;-0.348;2022-12-29T14:33:19;4.03;;;1.70;;
72493;SDS011;60520;49.182;-0.348;2022-12-29T14:35:48;4.30;;;1.33;;
72493;SDS011;60520;49.182;-0.348;2022-12-29T14:38:27;3.38;;;1.50;;
72493;SDS011;60520;49.182;-0.348;2022-12-29T14:43:40;4.80;;;1.63;;
72493;SDS011;60520;49.182;-0.348;2022-12-29T14:46:17;3.20;;;1.27;;
72493;SDS011;60520;49.182;-0.348;2022-12-29T14:48:44;2.92;;;1.30;;
72493;SDS011;60520;49.182;-0.348;2022-12-29T14:51:20;3.85;;;1.50;;
72493;SDS011;60520;49.182;-0.348;2022-12-29T14:53:52;3.75;;;1.40;;
72493;SDS011;60520;49.182;-0.348;2022-12-29T14:56:19;2.95;;;1.40;;
72493;SDS011;60520;49.182;-0.348;2022-12-29T14:58:48;4.20;;;1.38;;
72493;SDS011;60520;49.182;-0.348;2022-12-29T15:01:19;2.15;;;1.20;;